Time;durP1;ratioP1;P1;durP2;ratioP2;P2;SDS_P1;SDS_P2;PMS_P1;PMS_P2;Temp;Humidity;BMP_temperature;BMP_pressure;BME280_temperature;BME280_humidity;BME280_pressure;Samples;Min_cycle;Max_cycle;Signal;HPM_P1;HPM_P2
2022/09/26 00:01:30;;;;;;;3.17;2.47;;;13.40;98.00;;;;;;5052718;28;20492;-67
2022/09/26 00:04:01;;;;;;;5.67;2.50;;;13.40;98.00;;;;;;5052485;28;20459;-67
2022/09/26 00:06:29;;;;;;;3.50;2.10;;;13.30;98.00;;;;;;5052332;28;20948;-67
2022/09/26 00:08:56;;;;;;;2.90;2.00;;;13.20;98.00;;;;;;5052320;28;20469;-67
2022/09/26 00:11:27;;;;;;;2.30;2.03;;;13.10;98.00;;;;;;5052220;28;20459;-67
2022/09/26 00:13:56;;;;;;;3.67;3.43;;;13.10;98.00;;;;;;5052284;28;20464;-67
2022/09/26 00:16:23;;;;;;;4.30;2.30;;;13.10;98.00;;;;;;5052154;28;20513;-67
2022/09/26 00:18:51;;;;;;;4.43;2.63;;;13.10;98.00;;;;;;5052252;28;20859;-67
2022/09/26 00:21:21;;;;;;;3.03;2.33;;;13.10;98.00;;;;;;5052187;28;20830;-67
2022/09/26 00:23:48;;;;;;;2.60;2.07;;;13.10;98.00;;;;;;5052046;28;20459;-67
2022/09/26 00:26:17;;;;;;;3.97;1.90;;;13.00;98.00;;;;;;5052262;28;20939;-67
2022/09/26 00:28:44;;;;;;;1.77;1.60;;;13.00;98.00;;;;;;5051982;28;20466;-67
2022/09/26 00:31:14;;;;;;;8.33;2.33;;;13.10;98.00;;;;;;5034332;28;20461;-67
2022/09/26 00:33:50;;;;;;;3.27;2.23;;;13.20;98.00;;;;;;5052050;28;20462;-67
2022/09/26 00:36:19;;;;;;;2.43;1.80;;;13.20;98.00;;;;;;5033956;28;20470;-67
2022/09/26 00:38:46;;;;;;;2.47;1.77;;;13.30;98.00;;;;;;5052067;28;20462;-66
2022/09/26 00:41:15;;;;;;;8.00;3.10;;;13.20;98.00;;;;;;5051658;28;20507;-67
2022/09/26 00:43:43;;;;;;;5.27;2.10;;;13.10;98.00;;;;;;5052076;28;20469;-67
2022/09/26 00:46:21;;;;;;;3.87;2.27;;;13.00;98.00;;;;;;5051665;28;20720;-67
2022/09/26 00:48:51;;;;;;;2.60;2.20;;;13.00;98.00;;;;;;5051678;28;20841;-67
2022/09/26 00:51:20;;;;;;;2.07;1.80;;;13.00;98.00;;;;;;5051590;28;20944;-67
2022/09/26 00:53:49;;;;;;;3.20;1.93;;;13.00;98.00;;;;;;5017769;28;20466;-67
2022/09/26 00:56:21;;;;;;;5.47;2.07;;;13.00;98.00;;;;;;5051920;28;20463;-67
2022/09/26 00:58:53;;;;;;;3.77;2.03;;;13.00;98.00;;;;;;5051694;28;20955;-67
2022/09/26 01:01:21;;;;;;;3.57;1.77;;;13.10;98.00;;;;;;5051425;28;20493;-67
2022/09/26 01:03:49;;;;;;;2.50;1.60;;;13.00;98.00;;;;;;5051488;28;20455;-67
2022/09/26 01:06:17;;;;;;;1.90;1.53;;;12.90;98.00;;;;;;5051328;28;20456;-67
2022/09/26 01:08:51;;;;;;;4.13;1.93;;;12.90;98.00;;;;;;5051380;28;20508;-67
2022/09/26 01:11:19;;;;;;;2.60;2.10;;;12.90;98.00;;;;;;5051408;28;20866;-67
2022/09/26 01:13:47;;;;;;;2.20;1.97;;;12.90;98.00;;;;;;5051411;28;20458;-67
2022/09/26 01:16:14;;;;;;;3.03;2.10;;;12.90;98.00;;;;;;5051375;28;20515;-67
2022/09/26 01:18:45;;;;;;;2.80;2.10;;;12.80;98.00;;;;;;5033843;28;20798;-67
2022/09/26 01:21:41;;;;;;;7.00;2.10;;;12.80;98.00;;;;;;5051186;28;20896;-67
2022/09/26 01:24:47;;;;;;;3.03;2.30;;;12.80;98.00;;;;;;5010783;28;20465;-67
2022/09/26 01:27:48;;;;;;;2.53;2.10;;;12.80;98.00;;;;;;5051136;28;20959;-67
2022/09/26 01:30:20;;;;;;;4.33;1.90;;;12.90;98.00;;;;;;5037584;28;20523;-67
2022/09/26 01:33:28;;;;;;;4.40;1.90;;;12.80;98.00;;;;;;5033378;28;20454;-67
2022/09/26 01:36:31;;;;;;;2.50;1.90;;;12.80;98.00;;;;;;4971198;28;20463;-66
2022/09/26 01:39:13;;;;;;;1.83;1.73;;;12.80;98.00;;;;;;5050706;28;21034;-67
2022/09/26 01:41:51;;;;;;;2.30;2.03;;;12.90;98.00;;;;;;5054891;28;20485;-67
2022/09/26 01:44:30;;;;;;;2.67;2.00;;;13.00;98.00;;;;;;5054895;28;21002;-66
2022/09/26 01:47:18;;;;;;;2.43;1.87;;;13.00;98.00;;;;;;5054957;28;20528;-67
2022/09/26 01:49:54;;;;;;;2.43;1.70;;;13.10;98.00;;;;;;5021065;28;20940;-67
2022/09/26 01:52:27;;;;;;;3.87;2.07;;;13.00;98.00;;;;;;5055142;28;20464;-67
2022/09/26 01:54:58;;;;;;;2.20;1.70;;;13.00;98.00;;;;;;5055392;28;20467;-67
2022/09/26 01:57:29;;;;;;;2.70;1.80;;;12.90;98.00;;;;;;5055221;28;20479;-67
2022/09/26 01:59:59;;;;;;;12.60;2.73;;;13.00;98.00;;;;;;5055157;28;20463;-67
2022/09/26 02:02:32;;;;;;;2.30;1.70;;;12.90;98.00;;;;;;5054805;28;20460;-67
2022/09/26 02:05:04;;;;;;;2.80;2.30;;;12.90;98.00;;;;;;5054832;28;20461;-67
2022/09/26 02:07:37;;;;;;;1.90;1.77;;;12.90;98.00;;;;;;5037024;28;20799;-67
2022/09/26 02:10:09;;;;;;;3.07;1.80;;;13.00;98.00;;;;;;5054729;28;20510;-67
2022/09/26 02:12:39;;;;;;;3.23;2.13;;;12.90;98.00;;;;;;5054527;28;20479;-67
2022/09/26 02:15:10;;;;;;;2.77;2.10;;;13.00;98.00;;;;;;5054541;28;20555;-67
2022/09/26 02:17:42;;;;;;;3.57;1.80;;;13.10;98.00;;;;;;5054460;28;20914;-67
2022/09/26 02:20:15;;;;;;;4.63;2.17;;;12.90;98.00;;;;;;5054313;28;20514;-67
2022/09/26 02:22:42;;;;;;;2.83;1.93;;;12.90;98.00;;;;;;5054320;28;20515;-67
2022/09/26 02:25:10;;;;;;;4.00;2.03;;;12.70;98.00;;;;;;5054240;28;20815;-67
2022/09/26 02:27:38;;;;;;;2.40;1.73;;;12.60;98.00;;;;;;5054433;28;20503;-67
2022/09/26 02:30:06;;;;;;;2.23;1.73;;;12.60;98.00;;;;;;5054227;28;20511;-67
2022/09/26 02:32:35;;;;;;;3.60;1.97;;;12.60;98.00;;;;;;5054233;28;20488;-67
2022/09/26 02:37:56;;;;;;;4.90;2.10;;;12.70;98.00;;;;;;5038295;28;20864;-67
2022/09/26 02:40:34;;;;;;;3.30;2.17;;;12.70;98.00;;;;;;5036876;28;20849;-67
2022/09/26 02:43:26;;;;;;;3.07;1.90;;;12.70;98.00;;;;;;5053788;28;20462;-67
2022/09/26 02:46:06;;;;;;;3.00;1.93;;;12.70;98.00;;;;;;5036482;28;20464;-67
2022/09/26 02:48:49;;;;;;;2.87;2.37;;;12.60;98.00;;;;;;5052660;28;20457;-67
2022/09/26 02:51:48;;;;;;;2.83;2.17;;;12.60;98.00;;;;;;5053974;28;20455;-67
2022/09/26 02:54:22;;;;;;;2.83;1.93;;;12.40;98.00;;;;;;5054042;28;20468;-67
2022/09/26 02:57:07;;;;;;;2.87;2.00;;;12.30;98.00;;;;;;5054082;28;20547;-67
2022/09/26 02:59:46;;;;;;;2.53;1.73;;;12.40;98.00;;;;;;5038200;28;20959;-67
2022/09/26 03:02:15;;;;;;;3.50;2.50;;;12.30;98.00;;;;;;5053722;28;20837;-67
2022/09/26 03:04:49;;;;;;;1.80;1.70;;;12.20;98.00;;;;;;5053675;28;20524;-67
2022/09/26 03:07:24;;;;;;;16.63;2.43;;;12.10;98.00;;;;;;5053621;28;20464;-67
2022/09/26 03:09:53;;;;;;;3.97;2.37;;;12.00;98.00;;;;;;5053571;28;20463;-67
2022/09/26 03:12:24;;;;;;;2.07;1.60;;;12.00;98.00;;;;;;5036045;28;20453;-67
2022/09/26 03:14:53;;;;;;;2.67;2.57;;;12.00;98.00;;;;;;5053370;28;20468;-67
2022/09/26 03:17:24;;;;;;;4.20;2.00;;;12.10;98.00;;;;;;5053437;28;20463;-67
2022/09/26 03:19:58;;;;;;;3.10;1.93;;;12.10;98.00;;;;;;5053414;28;20470;-67
2022/09/26 03:22:26;;;;;;;4.43;2.43;;;12.10;98.00;;;;;;5053132;28;20489;-66
2022/09/26 03:24:54;;;;;;;4.50;2.47;;;12.10;98.00;;;;;;5053159;28;20516;-67
2022/09/26 03:27:21;;;;;;;2.90;2.23;;;12.10;98.00;;;;;;5053244;28;20492;-67
2022/09/26 03:29:48;;;;;;;2.60;1.80;;;12.10;98.00;;;;;;5053237;28;20472;-67
2022/09/26 03:32:15;;;;;;;7.20;2.33;;;12.10;98.00;;;;;;5053093;28;20821;-67
2022/09/26 03:34:42;;;;;;;3.97;2.37;;;12.00;98.00;;;;;;5053288;28;20472;-67
2022/09/26 03:37:10;;;;;;;2.83;2.17;;;11.90;98.00;;;;;;5052934;28;20461;-66
2022/09/26 03:39:38;;;;;;;2.80;2.37;;;11.80;98.00;;;;;;5052883;28;20455;-66
2022/09/26 03:42:05;;;;;;;1.70;1.60;;;11.70;98.00;;;;;;5052864;28;20574;-67
2022/09/26 03:44:32;;;;;;;3.30;1.90;;;11.80;98.00;;;;;;5035435;28;20459;-67
2022/09/26 03:46:59;;;;;;;2.43;2.20;;;11.70;98.00;;;;;;5052854;28;20816;-67
2022/09/26 03:49:27;;;;;;;3.27;2.00;;;11.70;98.00;;;;;;5053001;28;20458;-66
2022/09/26 03:51:55;;;;;;;2.87;1.87;;;11.60;98.00;;;;;;5035519;28;20456;-67
2022/09/26 03:54:22;;;;;;;4.80;2.27;;;11.70;98.00;;;;;;5053194;28;20794;-67
2022/09/26 03:56:51;;;;;;;2.47;1.90;;;11.70;98.00;;;;;;5052572;28;20463;-66
2022/09/26 03:59:18;;;;;;;3.23;2.20;;;11.70;98.00;;;;;;5052303;28;20945;-67
2022/09/26 04:01:45;;;;;;;2.77;1.90;;;11.70;98.00;;;;;;5052438;28;20491;-67
2022/09/26 04:04:14;;;;;;;3.10;2.10;;;11.70;98.00;;;;;;5053040;28;20454;-67
2022/09/26 04:06:42;;;;;;;2.87;2.07;;;11.60;98.00;;;;;;5052335;28;20534;-67
2022/09/26 04:09:10;;;;;;;1.93;1.67;;;11.60;98.00;;;;;;5052362;28;20461;-67
2022/09/26 04:11:37;;;;;;;2.63;1.90;;;11.70;98.00;;;;;;5052277;28;21034;-67
2022/09/26 04:14:06;;;;;;;7.77;2.30;;;11.70;98.00;;;;;;5052671;28;20469;-67
2022/09/26 04:16:34;;;;;;;1.93;1.70;;;11.70;98.00;;;;;;5052158;28;20504;-67
2022/09/26 04:19:02;;;;;;;2.30;1.50;;;11.70;98.00;;;;;;5034680;28;20463;-67
2022/09/26 04:21:29;;;;;;;2.13;1.70;;;11.60;98.00;;;;;;5052254;28;20995;-67
2022/09/26 04:23:57;;;;;;;2.40;2.00;;;11.60;98.00;;;;;;5052016;28;20464;-67
2022/09/26 04:26:24;;;;;;;2.43;2.30;;;11.60;98.00;;;;;;5034448;28;20470;-67
2022/09/26 04:28:53;;;;;;;3.40;2.13;;;11.70;98.00;;;;;;5052010;28;20541;-67
2022/09/26 04:31:26;;;;;;;3.07;1.80;;;11.70;98.00;;;;;;5052047;28;20953;-67
2022/09/26 04:33:54;;;;;;;2.47;1.70;;;11.80;98.00;;;;;;5051991;28;20456;-67
2022/09/26 04:36:21;;;;;;;2.37;2.23;;;11.80;98.00;;;;;;5051819;28;20512;-67
2022/09/26 04:38:48;;;;;;;5.27;2.17;;;11.70;98.00;;;;;;5051817;28;20457;-67
2022/09/26 04:41:17;;;;;;;8.03;2.37;;;11.60;98.00;;;;;;5051794;28;21043;-67
2022/09/26 04:43:45;;;;;;;4.60;1.80;;;11.50;98.00;;;;;;5051825;28;20515;-66
2022/09/26 04:46:14;;;;;;;6.07;1.97;;;11.40;98.00;;;;;;5051775;28;20463;-67
2022/09/26 04:48:43;;;;;;;3.37;2.17;;;11.30;98.00;;;;;;5052364;28;20873;-67
2022/09/26 04:51:13;;;;;;;3.43;2.00;;;11.30;98.00;;;;;;5034078;28;20451;-67
2022/09/26 04:53:40;;;;;;;4.13;1.57;;;11.40;98.00;;;;;;5051929;28;20463;-67
2022/09/26 04:56:09;;;;;;;4.23;2.40;;;11.40;98.00;;;;;;5051345;28;20461;-67
2022/09/26 04:58:36;;;;;;;3.23;2.13;;;11.30;98.00;;;;;;5051549;28;20972;-67
2022/09/26 05:01:06;;;;;;;5.97;2.10;;;11.30;98.00;;;;;;5033884;28;21014;-67
2022/09/26 05:03:35;;;;;;;2.67;1.93;;;11.30;98.00;;;;;;5051481;28;20484;-67
2022/09/26 05:06:07;;;;;;;2.90;1.70;;;11.30;98.00;;;;;;5051243;28;20447;-67
2022/09/26 05:08:34;;;;;;;2.40;1.87;;;11.30;98.00;;;;;;5051442;28;20966;-67
2022/09/26 05:11:03;;;;;;;2.67;1.90;;;11.30;98.00;;;;;;5032880;28;20477;-67
2022/09/26 05:13:31;;;;;;;4.17;2.37;;;11.40;98.00;;;;;;5033430;28;20468;-67
2022/09/26 05:16:00;;;;;;;2.13;1.90;;;11.30;98.00;;;;;;5033721;28;20459;-67
2022/09/26 05:18:28;;;;;;;4.80;2.20;;;11.40;98.00;;;;;;5049875;28;20456;-66
2022/09/26 05:20:57;;;;;;;2.80;1.93;;;11.50;98.00;;;;;;5051187;28;20499;-66
2022/09/26 05:26:19;;;;;;;2.70;1.70;;;11.50;98.00;;;;;;5051355;28;20808;-67
2022/09/26 05:28:48;;;;;;;2.70;2.20;;;11.40;98.00;;;;;;5034325;28;20472;-67
2022/09/26 05:31:15;;;;;;;2.87;2.00;;;11.40;98.00;;;;;;5051100;28;20528;-67
2022/09/26 05:33:43;;;;;;;4.57;2.83;;;11.50;98.00;;;;;;5051361;28;20462;-67
2022/09/26 05:36:11;;;;;;;4.27;2.20;;;11.40;98.00;;;;;;5033438;28;20456;-67
2022/09/26 05:38:40;;;;;;;3.00;1.80;;;11.60;98.00;;;;;;5051199;28;20465;-66
2022/09/26 05:41:06;;;;;;;4.23;2.87;;;11.50;98.00;;;;;;5050977;28;20956;-67
2022/09/26 05:43:34;;;;;;;3.40;2.40;;;11.50;98.00;;;;;;5051220;28;20471;-66
2022/09/26 05:46:03;;;;;;;2.90;2.00;;;11.40;98.00;;;;;;5033459;28;20889;-67
2022/09/26 05:48:32;;;;;;;4.43;2.03;;;11.30;98.00;;;;;;5051022;28;20547;-66
2022/09/26 05:51:04;;;;;;;5.80;3.27;;;11.30;98.00;;;;;;5051254;28;20616;-67
2022/09/26 05:53:31;;;;;;;4.17;2.30;;;11.30;98.00;;;;;;5051145;28;20451;-67
2022/09/26 05:56:00;;;;;;;2.70;2.03;;;11.10;98.00;;;;;;5051036;28;20450;-67
2022/09/26 05:58:32;;;;;;;3.00;2.20;;;11.00;98.00;;;;;;5050779;28;20457;-67
2022/09/26 06:01:13;;;;;;;2.53;2.00;;;11.10;98.00;;;;;;5050649;28;20555;-67
2022/09/26 06:03:43;;;;;;;3.30;1.67;;;11.30;98.00;;;;;;5050852;28;20967;-67
2022/09/26 06:06:13;;;;;;;2.20;1.93;;;11.30;98.00;;;;;;5050928;28;20465;-67
2022/09/26 06:08:41;;;;;;;2.20;1.90;;;11.40;98.00;;;;;;5050784;28;20513;-66
2022/09/26 06:11:12;;;;;;;6.00;3.00;;;11.60;98.00;;;;;;5050621;28;20464;-66
2022/09/26 06:13:42;;;;;;;3.00;2.10;;;11.80;98.00;;;;;;5050664;28;20447;-67
2022/09/26 06:16:13;;;;;;;1.93;1.70;;;11.90;98.00;;;;;;5033458;28;20823;-67
2022/09/26 06:18:41;;;;;;;3.03;2.40;;;12.00;98.00;;;;;;5033333;28;20517;-67
2022/09/26 06:21:11;;;;;;;4.37;2.87;;;12.00;98.00;;;;;;5050178;28;20883;-66
2022/09/26 06:23:39;;;;;;;2.70;2.17;;;12.00;98.00;;;;;;5054866;28;20491;-66
2022/09/26 06:26:11;;;;;;;3.13;2.00;;;12.10;98.00;;;;;;5054282;28;20454;-66
2022/09/26 06:28:39;;;;;;;2.87;2.00;;;12.20;98.00;;;;;;5054469;28;20972;-67
2022/09/26 06:31:10;;;;;;;3.70;2.27;;;12.20;98.00;;;;;;5054111;28;20984;-64
2022/09/26 06:33:37;;;;;;;3.67;2.20;;;12.30;98.00;;;;;;5054274;28;20455;-64
2022/09/26 06:36:05;;;;;;;4.50;3.40;;;12.40;98.00;;;;;;5054065;28;20461;-64
2022/09/26 06:38:33;;;;;;;4.93;2.60;;;12.50;98.00;;;;;;5054105;28;20947;-63
2022/09/26 06:41:03;;;;;;;2.77;2.07;;;12.50;98.00;;;;;;5054234;28;20513;-64
2022/09/26 06:43:31;;;;;;;3.20;1.77;;;12.50;98.00;;;;;;5054068;28;20499;-63
2022/09/26 06:45:58;;;;;;;3.97;2.40;;;12.50;98.00;;;;;;5053981;28;20456;-63
2022/09/26 06:48:26;;;;;;;2.73;1.80;;;12.40;98.00;;;;;;5054039;28;20871;-63
2022/09/26 06:50:53;;;;;;;2.93;1.97;;;12.30;98.00;;;;;;5053849;28;20824;-64
2022/09/26 06:53:21;;;;;;;3.10;2.23;;;12.20;98.00;;;;;;5053878;28;20465;-63
2022/09/26 06:55:48;;;;;;;3.87;2.40;;;12.50;98.00;;;;;;5053838;28;20465;-63
2022/09/26 06:58:15;;;;;;;2.93;1.83;;;12.40;98.00;;;;;;5053758;28;20532;-64
2022/09/26 07:00:44;;;;;;;2.73;2.07;;;12.60;98.00;;;;;;5053854;28;20807;-63
2022/09/26 07:03:14;;;;;;;3.60;2.67;;;12.60;98.00;;;;;;5053455;28;20488;-63
2022/09/26 07:05:42;;;;;;;2.80;2.20;;;12.90;98.00;;;;;;5053455;28;20464;-64
2022/09/26 07:08:09;;;;;;;2.03;1.93;;;13.00;98.00;;;;;;5053332;28;20460;-64
2022/09/26 07:10:36;;;;;;;8.10;3.30;;;13.10;98.00;;;;;;5053896;28;20463;-64
2022/09/26 07:13:05;;;;;;;3.63;2.77;;;13.30;98.00;;;;;;5053214;28;20518;-64
2022/09/26 07:15:34;;;;;;;4.33;2.40;;;13.20;98.00;;;;;;5053333;28;20459;-63
2022/09/26 07:18:05;;;;;;;3.37;2.20;;;13.30;98.00;;;;;;5053216;28;20456;-64
2022/09/26 07:20:35;;;;;;;3.00;1.97;;;13.40;98.00;;;;;;5053484;28;20458;-64
2022/09/26 07:23:03;;;;;;;3.80;1.90;;;13.50;98.00;;;;;;5053072;28;21026;-64
2022/09/26 07:25:32;;;;;;;7.27;2.40;;;13.50;98.00;;;;;;5053197;28;20960;-63
2022/09/26 07:27:59;;;;;;;3.10;2.33;;;13.60;98.00;;;;;;5053065;28;20457;-65
2022/09/26 07:30:26;;;;;;;2.67;2.17;;;13.50;98.00;;;;;;5035544;28;20460;-61
2022/09/26 07:33:01;;;;;;;2.70;1.93;;;13.50;98.00;;;;;;5052540;28;20449;-64
2022/09/26 07:35:32;;;;;;;3.83;2.10;;;13.60;98.00;;;;;;5049864;28;20452;-64
2022/09/26 07:37:59;;;;;;;6.07;2.03;;;13.40;98.00;;;;;;5050981;28;20487;-64
2022/09/26 07:40:27;;;;;;;3.50;1.93;;;13.30;98.00;;;;;;5050818;28;20466;-63
2022/09/26 07:42:58;;;;;;;4.47;2.47;;;13.20;98.00;;;;;;5050260;28;20579;-64
2022/09/26 07:50:56;;;;;;;5.13;2.03;;;13.30;98.00;;;;;;5033221;28;20464;-64
2022/09/26 07:53:24;;;;;;;3.50;1.90;;;13.40;98.00;;;;;;5052113;28;20477;-64
2022/09/26 07:56:05;;;;;;;5.10;2.17;;;13.50;98.00;;;;;;5035314;28;20455;-64
2022/09/26 07:58:32;;;;;;;2.60;1.77;;;13.60;98.00;;;;;;5022228;28;20506;-64
2022/09/26 08:01:07;;;;;;;3.23;2.10;;;13.80;98.00;;;;;;5052592;28;20986;-63
2022/09/26 08:03:34;;;;;;;2.67;1.83;;;13.90;98.00;;;;;;5052479;28;20488;-64
2022/09/26 08:06:03;;;;;;;3.00;1.70;;;14.00;98.00;;;;;;5052384;28;20539;-63
2022/09/26 08:08:30;;;;;;;2.40;1.70;;;14.10;98.00;;;;;;5052408;28;20954;-63
2022/09/26 08:10:58;;;;;;;2.23;1.67;;;14.10;98.00;;;;;;5052319;28;20471;-64
2022/09/26 08:13:26;;;;;;;4.07;2.27;;;14.00;98.00;;;;;;5034714;28;20459;-64
2022/09/26 08:15:53;;;;;;;2.10;1.70;;;13.90;98.00;;;;;;5034790;28;20463;-64
2022/09/26 08:18:21;;;;;;;2.73;1.80;;;13.80;98.00;;;;;;5052390;28;20458;-64
2022/09/26 08:20:48;;;;;;;3.23;1.97;;;13.90;98.00;;;;;;5050993;28;20510;-63
2022/09/26 08:23:17;;;;;;;2.40;1.73;;;14.00;98.00;;;;;;5052015;28;20492;-64
2022/09/26 08:25:45;;;;;;;2.33;1.67;;;14.00;98.00;;;;;;5052095;28;20989;-64
2022/09/26 08:28:12;;;;;;;3.10;2.00;;;14.10;98.00;;;;;;5052177;28;20522;-63
2022/09/26 08:30:39;;;;;;;2.50;1.63;;;14.20;98.00;;;;;;5052144;28;20801;-63
2022/09/26 08:33:07;;;;;;;2.00;1.70;;;14.20;98.00;;;;;;5051846;28;20472;-63
2022/09/26 08:35:37;;;;;;;3.93;1.90;;;14.10;98.00;;;;;;5052009;28;20906;-64
2022/09/26 08:38:06;;;;;;;2.17;1.80;;;14.20;98.00;;;;;;5052047;28;20479;-64
2022/09/26 08:40:44;;;;;;;1.40;1.20;;;14.30;98.00;;;;;;5052031;28;20540;-64
2022/09/26 08:43:27;;;;;;;2.37;1.67;;;14.40;98.00;;;;;;5051633;28;20560;-63
2022/09/26 08:48:58;;;;;;;1.97;1.37;;;14.50;98.00;;;;;;5051834;28;21147;-63
2022/09/26 08:51:32;;;;;;;2.37;1.40;;;14.70;98.00;;;;;;5051981;28;20529;-64
2022/09/26 08:54:06;;;;;;;2.97;1.50;;;14.80;98.00;;;;;;5051605;28;20463;-64
2022/09/26 08:56:39;;;;;;;2.50;1.70;;;15.00;98.00;;;;;;5051545;28;20487;-64
2022/09/26 08:59:11;;;;;;;3.00;1.97;;;15.00;98.00;;;;;;5051858;28;20460;-64
2022/09/26 09:01:41;;;;;;;1.90;1.70;;;15.20;98.00;;;;;;5048293;28;20471;-64
2022/09/26 09:04:14;;;;;;;4.70;1.70;;;15.20;98.00;;;;;;5031543;28;20500;-65
2022/09/26 09:06:44;;;;;;;2.70;1.77;;;15.30;98.00;;;;;;5048896;28;20500;-66
2022/09/26 09:09:14;;;;;;;2.20;1.53;;;15.40;98.00;;;;;;5048911;28;20451;-66
2022/09/26 09:12:02;;;;;;;1.80;1.30;;;15.50;98.00;;;;;;5031749;28;20919;-65
2022/09/26 09:14:50;;;;;;;1.83;1.70;;;15.70;98.00;;;;;;5045301;28;20866;-66
2022/09/26 09:17:29;;;;;;;2.57;1.50;;;15.80;98.00;;;;;;5045863;28;20458;-65
2022/09/26 09:20:06;;;;;;;2.53;1.73;;;16.00;98.00;;;;;;5049023;28;20468;-66
2022/09/26 09:22:49;;;;;;;2.63;1.80;;;16.00;98.00;;;;;;5049064;28;20455;-66
2022/09/26 09:25:21;;;;;;;1.70;1.60;;;16.20;98.00;;;;;;5048908;28;20953;-66
2022/09/26 09:28:02;;;;;;;2.43;1.90;;;16.30;98.00;;;;;;5048884;28;20463;-66
2022/09/26 09:30:40;;;;;;;3.77;2.07;;;16.40;98.00;;;;;;5049025;28;21003;-65
2022/09/26 09:33:14;;;;;;;3.23;2.20;;;16.70;98.00;;;;;;5048050;28;20582;-65
2022/09/26 09:35:46;;;;;;;3.20;2.13;;;16.70;98.00;;;;;;5048830;28;20462;-65
2022/09/26 09:38:16;;;;;;;2.70;1.80;;;16.90;98.00;;;;;;5048311;28;20467;-66
2022/09/26 09:40:52;;;;;;;3.17;1.80;;;17.20;98.00;;;;;;5048884;28;20469;-66
2022/09/26 09:43:27;;;;;;;4.60;2.60;;;17.30;98.00;;;;;;5048746;28;20578;-66
2022/09/26 09:46:01;;;;;;;6.30;2.00;;;17.50;98.00;;;;;;5048648;28;20464;-66
2022/09/26 09:48:29;;;;;;;2.27;1.70;;;17.70;98.00;;;;;;5048374;28;20564;-66
2022/09/26 09:51:12;;;;;;;2.93;2.00;;;17.90;98.00;;;;;;5046398;28;20449;-65
2022/09/26 09:54:13;;;;;;;4.40;2.50;;;18.00;98.00;;;;;;5048601;28;20831;-65
2022/09/26 09:56:47;;;;;;;2.17;1.70;;;18.20;98.00;;;;;;5042690;28;20465;-65
2022/09/26 09:59:42;;;;;;;2.87;1.90;;;18.40;98.00;;;;;;5052417;28;21007;-66
2022/09/26 10:02:20;;;;;;;2.00;1.60;;;18.60;98.00;;;;;;5052066;28;20454;-65
2022/09/26 10:05:05;;;;;;;8.23;2.10;;;18.50;98.00;;;;;;5051964;28;20489;-65
2022/09/26 10:07:32;;;;;;;1.70;1.40;;;18.30;98.00;;;;;;5052430;28;20475;-66
2022/09/26 10:09:59;;;;;;;1.70;1.63;;;18.00;98.00;;;;;;5034747;28;20461;-66
2022/09/26 10:12:29;;;;;;;2.17;1.70;;;17.70;98.00;;;;;;5052175;28;20460;-67
2022/09/26 10:15:02;;;;;;;4.00;2.27;;;17.20;98.00;;;;;;5052389;28;20468;-66
2022/09/26 10:17:29;;;;;;;2.40;1.90;;;16.90;98.00;;;;;;5052049;28;20983;-66
2022/09/26 10:19:57;;;;;;;3.63;2.00;;;16.70;98.00;;;;;;5052195;28;20514;-67
2022/09/26 10:22:31;;;;;;;2.17;1.80;;;16.60;98.00;;;;;;5051885;28;20456;-66
2022/09/26 10:25:07;;;;;;;3.27;2.00;;;16.50;98.00;;;;;;5051629;28;21060;-66
2022/09/26 10:27:37;;;;;;;1.70;1.50;;;16.90;98.00;;;;;;5052019;28;20510;-65
2022/09/26 10:30:24;;;;;;;2.17;1.70;;;17.40;98.00;;;;;;5052159;28;20462;-66
2022/09/26 10:32:54;;;;;;;2.17;1.87;;;18.00;98.00;;;;;;5051916;28;20468;-65
2022/09/26 10:35:24;;;;;;;2.13;1.90;;;18.70;98.00;;;;;;5052244;28;20462;-66
2022/09/26 10:38:00;;;;;;;2.60;1.70;;;18.70;98.00;;;;;;5034025;28;20457;-66
2022/09/26 10:40:47;;;;;;;2.90;2.03;;;18.50;98.00;;;;;;5051956;28;20497;-65
2022/09/26 10:43:22;;;;;;;2.10;1.57;;;18.70;98.00;;;;;;5052132;28;20484;-67
2022/09/26 10:45:54;;;;;;;2.33;1.70;;;19.40;98.00;;;;;;5052015;28;20453;-67
2022/09/26 10:48:26;;;;;;;2.23;1.80;;;19.90;98.00;;;;;;5034572;28;20548;-66
2022/09/26 10:50:59;;;;;;;2.30;1.83;;;19.70;97.80;;;;;;5049241;28;20465;-66
2022/09/26 10:53:30;;;;;;;1.70;1.50;;;19.10;96.60;;;;;;5051316;28;20469;-66
2022/09/26 10:56:02;;;;;;;2.57;1.80;;;18.80;98.00;;;;;;5051297;28;20948;-66
2022/09/26 10:58:35;;;;;;;1.43;1.40;;;18.60;97.90;;;;;;5051352;28;20519;-67
2022/09/26 11:01:05;;;;;;;2.87;2.10;;;18.50;98.00;;;;;;5051290;28;20470;-66
2022/09/26 11:03:41;;;;;;;2.23;1.60;;;18.90;98.00;;;;;;5050889;28;20493;-66
2022/09/26 11:06:23;;;;;;;2.20;1.80;;;18.90;97.40;;;;;;5051212;28;20457;-66
2022/09/26 11:08:56;;;;;;;3.73;1.90;;;19.40;96.80;;;;;;5049959;28;20461;-66
2022/09/26 11:11:24;;;;;;;1.93;1.53;;;19.50;95.50;;;;;;5050723;28;20458;-66
2022/09/26 11:14:02;;;;;;;1.93;1.80;;;19.40;94.40;;;;;;5053384;28;20597;-66
2022/09/26 11:16:38;;;;;;;2.27;1.60;;;19.50;97.90;;;;;;5053423;28;20452;-66
2022/09/26 11:19:15;;;;;;;4.33;1.50;;;19.80;95.10;;;;;;5053217;28;20562;-66
2022/09/26 11:21:48;;;;;;;2.90;1.70;;;20.30;94.10;;;;;;5053148;28;20464;-66
2022/09/26 11:24:22;;;;;;;3.90;1.70;;;20.90;90.20;;;;;;5053243;28;20486;-65
2022/09/26 11:27:04;;;;;;;2.00;1.60;;;20.70;90.70;;;;;;5053131;28;20490;-66
2022/09/26 11:29:42;;;;;;;2.67;1.70;;;20.60;90.30;;;;;;5053108;28;20458;-65
2022/09/26 11:32:14;;;;;;;2.43;1.70;;;20.40;90.50;;;;;;5053367;28;20453;-66
2022/09/26 11:34:42;;;;;;;3.07;1.93;;;20.20;91.00;;;;;;5053078;28;20817;-65
2022/09/26 11:37:30;;;;;;;2.30;1.70;;;20.00;93.00;;;;;;5053099;28;20465;-65
2022/09/26 11:40:28;;;;;;;2.00;1.60;;;19.90;93.40;;;;;;5035577;28;20493;-65
2022/09/26 11:43:12;;;;;;;2.07;1.50;;;19.80;91.90;;;;;;5053029;28;20519;-65
2022/09/26 11:46:03;;;;;;;1.70;1.40;;;19.40;92.20;;;;;;5053513;28;20456;-66
2022/09/26 11:48:51;;;;;;;2.10;1.50;;;19.20;93.10;;;;;;5036509;28;20461;-66
2022/09/26 11:51:33;;;;;;;1.70;1.60;;;18.70;93.90;;;;;;5053192;28;20847;-66
2022/09/26 11:54:31;;;;;;;2.70;1.67;;;18.40;97.20;;;;;;5035694;28;20978;-65
2022/09/26 11:57:08;;;;;;;2.70;1.63;;;18.10;96.50;;;;;;5052801;28;20460;-67
2022/09/26 11:59:49;;;;;;;2.00;1.50;;;17.90;96.80;;;;;;5052694;28;20504;-66
2022/09/26 12:02:39;;;;;;;2.03;1.70;;;17.80;96.10;;;;;;5052467;28;20461;-65
2022/09/26 12:05:24;;;;;;;2.23;1.70;;;17.90;98.00;;;;;;5052372;28;21014;-66
2022/09/26 12:08:10;;;;;;;1.90;1.60;;;18.00;96.90;;;;;;5052529;28;20449;-65
2022/09/26 12:10:45;;;;;;;1.40;1.30;;;18.30;98.00;;;;;;5052564;28;20468;-66
2022/09/26 12:13:28;;;;;;;1.70;1.40;;;18.10;94.40;;;;;;5018940;28;20463;-66
2022/09/26 12:16:02;;;;;;;8.20;1.57;;;17.90;96.50;;;;;;5052220;28;20514;-65
2022/09/26 12:18:38;;;;;;;2.77;1.67;;;17.80;95.70;;;;;;5052218;28;20958;-65
2022/09/26 12:21:19;;;;;;;1.50;1.43;;;17.80;96.30;;;;;;5051898;28;20457;-66
2022/09/26 12:23:52;;;;;;;1.80;1.50;;;18.30;93.70;;;;;;5052083;28;21006;-65
2022/09/26 12:26:25;;;;;;;1.30;1.20;;;18.60;90.90;;;;;;5052332;28;20879;-66
2022/09/26 12:29:07;;;;;;;1.50;1.33;;;19.10;91.30;;;;;;5052042;28;20457;-66
2022/09/26 12:32:01;;;;;;;1.77;1.47;;;19.60;87.30;;;;;;5052252;28;20830;-66
2022/09/26 12:34:59;;;;;;;2.70;1.53;;;20.40;85.50;;;;;;5052191;28;20449;-66
2022/09/26 12:37:44;;;;;;;1.80;1.47;;;20.90;84.40;;;;;;5039715;28;20461;-66
2022/09/26 12:40:27;;;;;;;2.30;1.43;;;21.40;84.80;;;;;;5052007;28;20457;-66
2022/09/26 12:43:21;;;;;;;1.30;1.20;;;21.40;85.00;;;;;;5051741;28;20963;-66
2022/09/26 12:46:08;;;;;;;2.00;1.50;;;21.70;85.20;;;;;;5052188;28;20944;-65
2022/09/26 12:48:51;;;;;;;2.40;1.70;;;21.10;84.00;;;;;;5051826;28;20959;-66
2022/09/26 12:51:27;;;;;;;1.50;1.30;;;20.90;86.90;;;;;;5051770;28;20468;-66
2022/09/26 12:54:35;;;;;;;2.23;1.40;;;20.70;86.80;;;;;;5051782;28;21005;-66
2022/09/26 12:57:10;;;;;;;1.60;1.50;;;20.50;87.80;;;;;;5043261;28;20461;-66
2022/09/26 12:59:54;;;;;;;2.60;1.73;;;20.20;88.40;;;;;;5033941;28;20465;-65
2022/09/26 13:03:11;;;;;;;2.23;1.50;;;20.50;89.90;;;;;;5035257;28;20470;-66
2022/09/26 13:06:03;;;;;;;1.40;1.40;;;21.20;87.50;;;;;;5036089;28;20489;-66
2022/09/26 13:08:41;;;;;;;1.77;1.50;;;21.90;84.60;;;;;;5051417;28;20458;-66
2022/09/26 13:11:19;;;;;;;1.37;1.20;;;22.00;83.60;;;;;;5051421;28;20518;-65
2022/09/26 13:14:13;;;;;;;1.80;1.40;;;21.50;84.70;;;;;;5051356;28;20454;-66
2022/09/26 13:16:54;;;;;;;1.53;1.30;;;20.70;85.10;;;;;;5051510;28;20461;-65
2022/09/26 13:19:27;;;;;;;1.30;1.30;;;20.30;85.20;;;;;;5051162;28;20457;-66
2022/09/26 13:21:58;;;;;;;2.03;1.40;;;19.60;85.60;;;;;;5051323;28;20461;-66
2022/09/26 13:24:33;;;;;;;6.80;1.50;;;19.30;86.50;;;;;;5033857;28;20517;-66
2022/09/26 13:27:11;;;;;;;2.50;1.30;;;19.10;89.00;;;;;;5051234;28;20485;-65
2022/09/26 13:29:42;;;;;;;1.40;1.30;;;18.90;88.40;;;;;;5051354;28;20457;-65
2022/09/26 13:32:19;;;;;;;1.43;1.30;;;18.60;88.00;;;;;;5033013;28;20454;-65
2022/09/26 13:34:53;;;;;;;2.40;1.60;;;18.40;90.30;;;;;;5051218;28;20507;-66